createdAt,value
2022-08-12T00:00:47.497Z,101892.55
2022-08-12T00:03:37.795Z,101896.87
2022-08-12T00:06:27.632Z,101898.93
2022-08-12T00:09:25.763Z,101895.21
2022-08-12T00:12:13.154Z,101896.04
2022-08-12T00:15:02.580Z,101896.59
2022-08-12T00:17:52.065Z,101892.00
2022-08-12T00:20:39.388Z,101896.11
2022-08-12T00:23:27.009Z,101895.58
2022-08-12T00:26:23.294Z,101892.31
2022-08-12T00:29:03.223Z,101893.75
2022-08-12T00:31:52.529Z,101896.59
2022-08-12T00:34:39.771Z,101896.34
2022-08-12T00:37:27.767Z,101901.49
2022-08-12T00:40:16.811Z,101895.78
2022-08-12T00:42:47.438Z,101899.31
2022-08-12T00:45:21.252Z,101899.64
2022-08-12T00:47:54.387Z,101891.77
2022-08-12T00:50:24.463Z,101892.95
2022-08-12T00:52:54.175Z,101888.17
2022-08-12T00:55:24.986Z,101889.83
2022-08-12T00:57:54.299Z,101883.88
2022-08-12T01:00:30.205Z,101891.18
2022-08-12T01:03:00.310Z,101895.80
2022-08-12T01:05:54.132Z,101897.16
2022-08-12T01:08:32.794Z,101897.50
2022-08-12T01:11:25.407Z,101896.20
2022-08-12T01:13:54.838Z,101893.84
2022-08-12T01:16:25.013Z,101892.78
2022-08-12T01:18:58.428Z,101885.73
2022-08-12T01:22:04.396Z,101891.79
2022-08-12T01:24:44.115Z,101889.04
2022-08-12T01:27:15.062Z,101887.83
2022-08-12T01:29:48.185Z,101888.03
2022-08-12T01:32:17.697Z,101887.20
2022-08-12T01:34:52.618Z,101886.59
2022-08-12T01:37:24.075Z,101884.14
2022-08-12T01:40:33.932Z,101887.42
2022-08-12T01:42:31.323Z,101883.38
2022-08-12T01:45:01.568Z,101881.76
2022-08-12T01:47:43.177Z,101883.33
2022-08-12T01:50:38.054Z,101881.97
2022-08-12T01:53:13.338Z,101876.26
2022-08-12T01:55:46.571Z,101877.11
2022-08-12T01:58:24.881Z,101881.70
2022-08-12T02:01:04.785Z,101877.42
2022-08-12T02:04:12.911Z,101867.79
2022-08-12T02:07:21.631Z,101868.81
2022-08-12T02:10:51.343Z,101868.03
2022-08-12T02:13:01.671Z,101869.39
2022-08-12T02:15:57.619Z,101866.97
2022-08-12T02:18:45.049Z,101865.66
2022-08-12T02:21:38.399Z,101862.42
2022-08-12T02:24:13.185Z,101864.80
2022-08-12T02:26:45.809Z,101858.33
2022-08-12T02:29:17.971Z,101862.47
2022-08-12T02:31:52.986Z,101854.05
2022-08-12T02:34:24.590Z,101855.77
2022-08-12T02:36:57.566Z,101853.94
2022-08-12T02:39:31.345Z,101850.13
2022-08-12T02:42:03.709Z,101843.91
2022-08-12T02:44:38.401Z,101840.92
2022-08-12T02:47:55.890Z,101847.98
2022-08-12T02:49:54.343Z,101850.45
2022-08-12T02:52:26.741Z,101852.69
2022-08-12T02:55:01.491Z,101857.63
2022-08-12T02:57:32.450Z,101854.09
2022-08-12T03:00:03.432Z,101857.92
2022-08-12T03:02:33.021Z,101855.20
2022-08-12T03:05:06.913Z,101843.55
2022-08-12T03:07:59.493Z,101845.20
2022-08-12T03:10:20.678Z,101841.94
2022-08-12T03:12:53.815Z,101842.48
2022-08-12T03:15:24.630Z,101838.18
2022-08-12T03:18:24.824Z,101834.14
2022-08-12T03:20:55.099Z,101838.48
2022-08-12T03:23:31.008Z,101841.46
2022-08-12T03:26:03.640Z,101837.92
2022-08-12T03:28:52.672Z,101837.67
2022-08-12T03:31:33.771Z,101840.70
2022-08-12T03:34:08.842Z,101839.89
2022-08-12T03:36:40.186Z,101848.35
2022-08-12T03:39:19.274Z,101843.23
2022-08-12T03:42:14.708Z,101844.05
2022-08-12T03:45:18.924Z,101845.20
2022-08-12T03:48:18.937Z,101849.02
2022-08-12T03:51:08.211Z,101842.52
2022-08-12T03:53:58.313Z,101847.14
2022-08-12T03:56:48.010Z,101848.51
2022-08-12T03:59:35.127Z,101846.08
2022-08-12T04:02:05.315Z,101848.52
2022-08-12T04:04:35.925Z,101850.75
2022-08-12T04:07:09.854Z,101842.59
2022-08-12T04:09:46.155Z,101841.27
2022-08-12T04:12:35.565Z,101834.78
2022-08-12T04:15:06.110Z,101842.66
2022-08-12T04:17:36.228Z,101836.66
2022-08-12T04:20:08.002Z,101839.39
2022-08-12T04:22:37.325Z,101837.51
2022-08-12T04:25:09.003Z,101836.73
2022-08-12T04:27:40.196Z,101836.18
2022-08-12T04:30:21.291Z,101836.98
2022-08-12T04:32:44.860Z,101838.35
2022-08-12T04:35:16.046Z,101832.65
2022-08-12T04:37:58.953Z,101836.47
2022-08-12T04:40:28.037Z,101833.75
2022-08-12T04:43:00.443Z,101834.01
2022-08-12T04:45:32.579Z,101831.29
2022-08-12T04:48:02.768Z,101829.89
2022-08-12T04:50:35.872Z,101826.85
2022-08-12T04:53:05.510Z,101837.44
2022-08-12T04:55:35.303Z,101842.00
2022-08-12T04:58:04.660Z,101839.83
2022-08-12T05:00:35.115Z,101846.34
2022-08-12T05:03:06.514Z,101846.08
2022-08-12T05:05:37.097Z,101850.39
2022-08-12T05:08:08.489Z,101849.02
2022-08-12T05:10:37.729Z,101853.28
2022-08-12T05:13:09.130Z,101851.58
2022-08-12T05:16:02.598Z,101846.26
2022-08-12T05:18:19.268Z,101849.45
2022-08-12T05:20:42.800Z,101850.72
2022-08-12T05:23:14.995Z,101847.39
2022-08-12T05:25:45.713Z,101843.27
2022-08-12T05:28:17.632Z,101850.83
2022-08-12T05:30:48.145Z,101849.20
2022-08-12T05:33:17.568Z,101860.85
2022-08-12T05:35:49.565Z,101852.52
2022-08-12T05:38:38.109Z,101856.27
2022-08-12T05:41:13.374Z,101856.73
2022-08-12T05:43:42.687Z,101864.72
2022-08-12T05:46:13.663Z,101861.13
2022-08-12T05:48:43.735Z,101869.32
2022-08-12T05:51:13.059Z,101865.89
2022-08-12T05:53:43.223Z,101872.58
2022-08-12T05:56:30.557Z,101870.03
2022-08-12T05:59:01.833Z,101871.05
2022-08-12T06:02:12.621Z,101878.17
2022-08-12T06:04:02.747Z,101881.08
2022-08-12T06:06:39.588Z,101875.15
2022-08-12T06:09:09.638Z,101873.20
2022-08-12T06:12:05.089Z,101873.05
2022-08-12T06:14:14.719Z,101872.40
2022-08-12T06:16:46.382Z,101873.10
2022-08-12T06:19:16.153Z,101872.61
2022-08-12T06:21:47.206Z,101876.05
2022-08-12T06:24:19.064Z,101873.16
2022-08-12T06:26:48.343Z,101877.79
2022-08-12T06:30:07.449Z,101874.25
2022-08-12T06:31:53.524Z,101876.06
2022-08-12T06:35:26.534Z,101871.15
2022-08-12T06:36:55.401Z,101871.34
2022-08-12T06:39:25.078Z,101872.33
2022-08-12T06:42:33.114Z,101869.66
2022-08-12T06:44:43.137Z,101872.09
2022-08-12T06:47:14.057Z,101870.55
2022-08-12T06:49:44.296Z,101872.59
2022-08-12T06:52:13.579Z,101875.21
2022-08-12T06:54:44.506Z,101867.67
2022-08-12T06:58:08.089Z,101867.55
2022-08-12T06:59:44.856Z,101866.31
2022-08-12T07:02:14.111Z,101865.80
2022-08-12T07:04:43.485Z,101870.32
2022-08-12T07:07:12.703Z,101861.53
2022-08-12T07:10:05.372Z,101865.52
2022-08-12T07:12:15.698Z,101861.27
2022-08-12T07:14:48.484Z,101865.98
2022-08-12T07:17:16.110Z,101861.38
2022-08-12T07:19:46.903Z,101864.06
2022-08-12T07:22:18.758Z,101869.23
2022-08-12T07:24:49.884Z,101874.80
2022-08-12T07:27:19.129Z,101874.07
2022-08-12T07:29:58.160Z,101876.52
2022-08-12T07:32:21.934Z,101882.72
2022-08-12T07:34:51.315Z,101878.78
2022-08-12T07:37:20.613Z,101880.65
2022-08-12T07:39:59.251Z,101876.08
2022-08-12T07:42:21.515Z,101877.61
2022-08-12T07:44:51.908Z,101872.98
2022-08-12T07:47:21.354Z,101874.04
2022-08-12T07:50:04.936Z,101874.98
2022-08-12T07:52:21.869Z,101879.89
2022-08-12T07:54:51.148Z,101875.50
2022-08-12T07:57:20.725Z,101890.84
2022-08-12T07:59:50.188Z,101879.02
2022-08-12T08:02:21.138Z,101886.34
2022-08-12T08:04:58.493Z,101887.13
2022-08-12T08:07:30.702Z,101888.64
2022-08-12T08:10:00.802Z,101887.73
2022-08-12T08:12:48.561Z,101882.72
2022-08-12T08:15:20.251Z,101882.31
2022-08-12T08:18:02.365Z,101886.19
2022-08-12T08:20:34.006Z,101878.66
2022-08-12T08:23:08.924Z,101881.81
2022-08-12T08:25:39.627Z,101876.55
2022-08-12T08:28:12.215Z,101884.77
2022-08-12T08:30:44.396Z,101889.36
2022-08-12T08:33:24.409Z,101886.17
2022-08-12T08:35:47.765Z,101888.73
2022-08-12T08:38:23.514Z,101890.11
2022-08-12T08:41:07.945Z,101893.86
2022-08-12T08:43:44.034Z,101888.00
2022-08-12T08:46:08.219Z,101889.98
2022-08-12T08:48:37.553Z,101900.06
2022-08-12T08:51:07.040Z,101900.06
2022-08-12T08:53:36.575Z,101893.21
2022-08-12T08:56:06.443Z,101896.23
2022-08-12T08:58:35.811Z,101896.23
2022-08-12T09:01:05.910Z,101892.30
2022-08-12T09:05:08.301Z,101885.84
2022-08-12T09:06:06.773Z,101892.64
2022-08-12T09:08:36.270Z,101892.28
2022-08-12T09:11:07.247Z,101895.14
2022-08-12T09:14:12.476Z,101889.24
2022-08-12T09:16:09.426Z,101884.34
2022-08-12T09:18:41.271Z,101882.18
2022-08-12T09:21:11.309Z,101891.33
2022-08-12T09:23:58.522Z,101884.97
2022-08-12T09:26:12.319Z,101884.86
2022-08-12T09:28:42.860Z,101881.94
2022-08-12T09:32:03.585Z,101881.91
2022-08-12T09:34:29.834Z,101887.60
2022-08-12T09:36:15.642Z,101878.55
2022-08-12T09:38:58.814Z,101876.80
2022-08-12T09:42:08.603Z,101876.41
2022-08-12T09:44:06.941Z,101878.16
2022-08-12T09:46:37.717Z,101875.26
2022-08-12T09:49:13.488Z,101879.52
2022-08-12T09:51:43.974Z,101877.20
2022-08-12T09:54:34.326Z,101875.25
2022-08-12T09:57:01.131Z,101883.83
2022-08-12T10:00:16.083Z,101880.25
2022-08-12T10:02:42.616Z,101872.94
2022-08-12T10:04:20.864Z,101870.50
2022-08-12T10:06:55.615Z,101865.34
2022-08-12T10:09:21.350Z,101863.58
2022-08-12T10:12:12.978Z,101865.59
2022-08-12T10:14:50.200Z,101860.95
2022-08-12T10:17:14.486Z,101853.02
2022-08-12T10:19:51.923Z,101860.22
2022-08-12T10:22:17.294Z,101848.30
2022-08-12T10:24:53.239Z,101849.53
2022-08-12T10:28:00.805Z,101849.27
2022-08-12T10:30:39.744Z,101851.77
2022-08-12T10:32:44.686Z,101844.52
2022-08-12T10:35:10.913Z,101842.78
2022-08-12T10:38:35.506Z,101836.80
2022-08-12T10:40:19.224Z,101840.30
2022-08-12T10:43:01.131Z,101833.62
2022-08-12T10:45:31.276Z,101824.11
2022-08-12T10:48:19.521Z,101817.96
2022-08-12T10:50:58.558Z,101817.31
2022-08-12T10:53:05.826Z,101812.33
2022-08-12T10:55:36.836Z,101816.00
2022-08-12T10:58:15.244Z,101812.30
2022-08-12T11:00:55.554Z,101806.84
2022-08-12T11:04:23.738Z,101807.14
2022-08-12T11:07:09.189Z,101805.14
2022-08-12T11:08:34.896Z,101802.56
2022-08-12T11:10:45.774Z,101810.55
2022-08-12T11:13:15.095Z,101797.41
2022-08-12T11:16:19.018Z,101802.70
2022-08-12T11:18:18.386Z,101792.55
2022-08-12T11:20:48.407Z,101784.80
2022-08-12T11:23:24.917Z,101783.17
2022-08-12T11:25:57.628Z,101785.45
2022-08-12T11:28:34.870Z,101779.52
2022-08-12T11:30:53.635Z,101782.85
2022-08-12T11:33:23.961Z,101776.42
2022-08-12T11:35:59.163Z,101771.58
2022-08-12T11:38:24.881Z,101766.41
2022-08-12T11:40:56.035Z,101769.06
2022-08-12T11:43:27.272Z,101771.94
2022-08-12T11:45:58.434Z,101768.16
2022-08-12T11:48:27.784Z,101775.80
2022-08-12T11:50:58.753Z,101771.98
2022-08-12T11:53:58.130Z,101767.73
2022-08-12T11:55:58.450Z,101760.50
2022-08-12T11:59:18.842Z,101760.86
2022-08-12T12:03:44.194Z,101759.28
2022-08-12T12:06:00.457Z,101756.89
2022-08-12T12:08:38.743Z,101755.09
2022-08-12T12:11:02.412Z,101736.41
2022-08-12T12:14:07.415Z,101729.87
2022-08-12T12:16:05.946Z,101738.25
2022-08-12T12:18:36.319Z,101734.47
2022-08-12T12:21:08.322Z,101733.52
2022-08-12T12:23:37.805Z,101732.22
2022-08-12T12:26:09.902Z,101728.31
2022-08-12T12:28:39.761Z,101727.27
2022-08-12T12:31:14.560Z,101730.66
2022-08-12T12:33:57.295Z,101730.72
2022-08-12T12:36:20.574Z,101724.72
2022-08-12T12:38:43.036Z,101724.98
2022-08-12T12:41:16.512Z,101723.03
2022-08-12T12:43:47.561Z,101720.42
2022-08-12T12:46:16.132Z,101711.44
2022-08-12T12:48:45.532Z,101711.49
2022-08-12T12:51:48.465Z,101707.16
2022-08-12T12:54:06.710Z,101698.95
2022-08-12T12:56:33.994Z,101699.34
2022-08-12T12:58:56.486Z,101696.67
2022-08-12T13:01:30.075Z,101698.52
2022-08-12T13:04:02.267Z,101697.36
2022-08-12T13:06:32.023Z,101693.81
2022-08-12T13:09:03.814Z,101692.19
2022-08-12T13:11:41.561Z,101688.16
2022-08-12T13:14:09.844Z,101692.09
2022-08-12T13:16:36.577Z,101685.51
2022-08-12T13:19:07.841Z,101681.84
2022-08-12T13:21:42.874Z,101683.17
2022-08-12T13:24:10.796Z,101667.88
2022-08-12T13:26:40.812Z,101673.27
2022-08-12T13:29:11.611Z,101669.28
2022-08-12T13:31:46.326Z,101669.53
2022-08-12T13:34:33.985Z,101670.90
2022-08-12T13:36:47.491Z,101676.14
2022-08-12T13:39:16.866Z,101675.60
2022-08-12T13:41:46.697Z,101675.33
2022-08-12T13:44:19.608Z,101673.69
2022-08-12T13:46:58.642Z,101667.97
2022-08-12T13:49:54.160Z,101666.93
2022-08-12T13:51:52.755Z,101664.42
2022-08-12T13:54:23.601Z,101663.11
2022-08-12T13:56:53.004Z,101663.97
2022-08-12T13:59:24.520Z,101653.56
2022-08-12T14:01:56.861Z,101650.41
2022-08-12T14:04:25.572Z,101643.63
2022-08-12T14:06:58.304Z,101647.23
2022-08-12T14:09:29.756Z,101650.48
2022-08-12T14:12:00.009Z,101651.45
2022-08-12T14:14:31.448Z,101643.66
2022-08-12T14:17:02.364Z,101645.36
2022-08-12T14:19:38.083Z,101640.80
2022-08-12T14:22:05.494Z,101630.95
2022-08-12T14:24:40.441Z,101632.83
2022-08-12T14:27:11.083Z,101633.02
2022-08-12T14:30:04.463Z,101626.95
2022-08-12T14:32:16.797Z,101628.39
2022-08-12T14:34:44.589Z,101627.06
2022-08-12T14:37:55.324Z,101619.91
2022-08-12T14:39:50.511Z,101617.64
2022-08-12T14:42:16.246Z,101615.34
2022-08-12T14:44:57.704Z,101613.80
2022-08-12T14:47:17.209Z,101612.47
2022-08-12T14:50:34.081Z,101601.53
2022-08-12T14:53:13.572Z,101600.86
2022-08-12T14:57:23.956Z,101594.74
2022-08-12T15:00:10.315Z,101606.78
2022-08-12T15:02:39.942Z,101601.55
2022-08-12T15:05:09.549Z,101607.13
2022-08-12T15:07:50.128Z,101596.98
2022-08-12T15:10:10.747Z,101594.81
2022-08-12T15:12:40.524Z,101594.61
2022-08-12T15:15:11.303Z,101597.59
2022-08-12T15:17:40.941Z,101592.39
2022-08-12T15:20:31.701Z,101594.38
2022-08-12T15:22:53.808Z,101584.62
2022-08-12T15:25:17.490Z,101585.22
2022-08-12T15:28:20.376Z,101582.65
2022-08-12T15:30:16.248Z,101583.83
2022-08-12T15:32:48.729Z,101582.85
2022-08-12T15:35:17.403Z,101582.44
2022-08-12T15:38:11.138Z,101580.05
2022-08-12T15:40:30.390Z,101583.19
2022-08-12T15:42:51.004Z,101570.06
2022-08-12T15:45:23.925Z,101571.70
2022-08-12T15:48:16.105Z,101574.58
2022-08-12T15:50:27.161Z,101567.66
2022-08-12T15:52:57.715Z,101562.42
2022-08-12T15:55:31.317Z,101561.66
2022-08-12T15:58:01.730Z,101555.44
2022-08-12T16:00:38.926Z,101554.98
2022-08-12T16:03:13.491Z,101552.11
2022-08-12T16:06:11.187Z,101553.64
2022-08-12T16:08:21.234Z,101549.19
2022-08-12T16:10:44.897Z,101546.42
2022-08-12T16:13:32.660Z,101545.93
2022-08-12T16:16:01.828Z,101536.77
2022-08-12T16:18:21.914Z,101540.06
2022-08-12T16:20:52.535Z,101538.13
2022-08-12T16:23:36.217Z,101539.98
2022-08-12T16:26:05.203Z,101537.98
2022-08-12T16:28:28.313Z,101540.01
2022-08-12T16:30:57.504Z,101542.80
2022-08-12T16:33:59.612Z,101536.02
2022-08-12T16:36:18.937Z,101530.86
2022-08-12T16:38:46.297Z,101537.31
2022-08-12T16:41:15.553Z,101535.37
2022-08-12T16:43:46.862Z,101535.19
2022-08-12T16:46:31.005Z,101536.88
2022-08-12T16:48:47.599Z,101526.92
2022-08-12T16:51:17.803Z,101524.02
2022-08-12T16:53:49.093Z,101523.12
2022-08-12T16:56:18.323Z,101522.13
2022-08-12T16:58:48.026Z,101521.13
2022-08-12T17:01:19.834Z,101522.11
2022-08-12T17:04:09.724Z,101517.66
2022-08-12T17:06:47.960Z,101518.45
2022-08-12T17:09:18.409Z,101517.08
2022-08-12T17:11:49.992Z,101510.94
2022-08-12T17:14:23.346Z,101514.67
2022-08-12T17:16:55.407Z,101516.27
2022-08-12T17:20:29.422Z,101510.90
2022-08-12T17:22:02.104Z,101517.92
2022-08-12T17:24:30.525Z,101517.92
2022-08-12T17:27:09.604Z,101513.69
2022-08-12T17:30:03.799Z,101512.40
2022-08-12T17:32:11.150Z,101517.95
2022-08-12T17:34:58.892Z,101521.16
2022-08-12T17:37:29.436Z,101515.70
2022-08-12T17:40:06.736Z,101511.36
2022-08-12T17:42:32.890Z,101518.20
2022-08-12T17:45:01.910Z,101514.80
2022-08-12T17:47:36.253Z,101512.66
2022-08-12T17:50:08.535Z,101514.94
2022-08-12T17:52:40.469Z,101512.98
2022-08-12T17:55:44.344Z,101509.73
2022-08-12T17:57:43.172Z,101508.45
2022-08-12T18:00:14.177Z,101507.84
2022-08-12T18:02:43.758Z,101508.42
2022-08-12T18:05:13.645Z,101502.38
2022-08-12T18:07:46.053Z,101512.36
2022-08-12T18:10:22.388Z,101516.85
2022-08-12T18:12:53.871Z,101515.50
2022-08-12T18:15:26.792Z,101517.91
2022-08-12T18:18:00.131Z,101514.30
2022-08-12T18:20:27.146Z,101522.90
2022-08-12T18:23:01.781Z,101521.93
2022-08-12T18:26:14.459Z,101522.83
2022-08-12T18:28:29.057Z,101522.06
2022-08-12T18:30:54.648Z,101518.36
2022-08-12T18:33:25.817Z,101519.32
2022-08-12T18:35:56.940Z,101520.47
2022-08-12T18:38:27.683Z,101524.27
2022-08-12T18:41:21.140Z,101526.25
2022-08-12T18:43:59.488Z,101527.97
2022-08-12T18:46:18.601Z,101527.27
2022-08-12T18:48:52.503Z,101529.24
2022-08-12T18:51:34.110Z,101525.22
2022-08-12T18:54:06.649Z,101526.11
2022-08-12T18:56:33.551Z,101531.73
2022-08-12T18:59:00.513Z,101536.27
2022-08-12T19:02:19.656Z,101541.67
2022-08-12T19:04:07.293Z,101536.00
2022-08-12T19:06:38.306Z,101542.31
2022-08-12T19:09:10.283Z,101538.95
2022-08-12T19:11:58.202Z,101532.34
2022-08-12T19:14:32.295Z,101539.62
2022-08-12T19:17:05.154Z,101540.15
2022-08-12T19:19:42.006Z,101544.42
2022-08-12T19:22:08.341Z,101540.56
2022-08-12T19:24:55.612Z,101543.37
2022-08-12T19:27:25.155Z,101543.62
2022-08-12T19:30:06.578Z,101542.02
2022-08-12T19:32:31.356Z,101546.28
2022-08-12T19:38:02.771Z,101551.68
2022-08-12T19:40:09.444Z,101559.52
2022-08-12T19:42:42.800Z,101561.20
2022-08-12T19:45:12.234Z,101562.37
2022-08-12T19:47:43.125Z,101555.14
2022-08-12T19:50:12.588Z,101559.15
2022-08-12T19:52:43.708Z,101557.64
2022-08-12T19:55:19.864Z,101557.86
2022-08-12T19:58:02.273Z,101564.42
2022-08-12T20:00:17.304Z,101571.80
2022-08-12T20:02:48.469Z,101562.94
2022-08-12T20:06:03.301Z,101565.08
2022-08-12T20:07:57.153Z,101558.41
2022-08-12T20:10:22.188Z,101561.58
2022-08-12T20:13:17.392Z,101562.69
2022-08-12T20:15:26.123Z,101564.52
2022-08-12T20:17:57.253Z,101564.12
2022-08-12T20:20:28.443Z,101564.05
2022-08-12T20:22:58.086Z,101572.46
2022-08-12T20:25:52.755Z,101572.16
2022-08-12T20:28:05.315Z,101567.04
2022-08-12T20:30:37.596Z,101570.59
2022-08-12T20:33:05.604Z,101569.17
2022-08-12T20:36:06.195Z,101573.48
2022-08-12T20:38:07.142Z,101573.20
2022-08-12T20:40:38.220Z,101567.01
2022-08-12T20:43:08.704Z,101566.85
2022-08-12T20:45:44.901Z,101570.92
2022-08-12T20:48:10.884Z,101570.06
2022-08-12T20:50:53.457Z,101572.64
2022-08-12T20:53:18.585Z,101565.16
2022-08-12T20:55:56.993Z,101565.98
2022-08-12T20:58:19.298Z,101567.73
2022-08-12T21:00:50.203Z,101567.63
2022-08-12T21:03:38.139Z,101571.66
2022-08-12T21:06:27.196Z,101565.23
2022-08-12T21:09:00.066Z,101562.66
2022-08-12T21:11:30.481Z,101565.33
2022-08-12T21:13:59.925Z,101565.76
2022-08-12T21:16:35.873Z,101566.30
2022-08-12T21:19:08.109Z,101567.83
2022-08-12T21:21:40.313Z,101565.73
2022-08-12T21:24:08.686Z,101570.13
2022-08-12T21:26:39.999Z,101536.77
2022-08-12T21:29:11.904Z,101566.66
2022-08-12T21:32:39.490Z,101564.15
2022-08-12T21:34:19.571Z,101560.80
2022-08-12T21:36:52.255Z,101562.96
2022-08-12T21:39:35.833Z,101554.33
2022-08-12T21:42:02.453Z,101562.34
2022-08-12T21:45:44.040Z,101553.72
2022-08-12T21:47:20.275Z,101566.16
2022-08-12T21:49:53.458Z,101564.81
2022-08-12T21:52:12.462Z,101566.84
2022-08-12T21:54:43.921Z,101566.77
2022-08-12T21:57:16.741Z,101572.00
2022-08-12T21:59:48.356Z,101567.09
2022-08-12T22:02:37.182Z,101567.17
2022-08-12T22:05:24.719Z,101569.45
2022-08-12T22:07:58.351Z,101565.44
2022-08-12T22:10:28.404Z,101577.32
2022-08-12T22:12:58.517Z,101569.69
2022-08-12T22:15:29.657Z,101566.22
2022-08-12T22:18:01.351Z,101573.41
2022-08-12T22:20:31.573Z,101571.10
2022-08-12T22:23:02.419Z,101576.56
2022-08-12T22:25:32.118Z,101573.14
2022-08-12T22:28:24.590Z,101567.88
2022-08-12T22:31:08.536Z,101587.45
2022-08-12T22:33:53.980Z,101578.14
2022-08-12T22:36:16.848Z,101572.13
2022-08-12T22:38:46.304Z,101572.81
2022-08-12T22:41:30.757Z,101570.36
2022-08-12T22:44:19.463Z,101576.34
2022-08-12T22:46:54.363Z,101581.36
2022-08-12T22:49:36.527Z,101580.13
2022-08-12T22:52:03.013Z,101578.33
2022-08-12T22:54:35.536Z,101575.15
2022-08-12T22:57:02.721Z,101568.64
2022-08-12T22:59:49.627Z,101569.41
2022-08-12T23:02:03.790Z,101577.41
2022-08-12T23:04:34.602Z,101571.07
2022-08-12T23:07:07.412Z,101572.19
2022-08-12T23:09:48.505Z,101563.67
2022-08-12T23:12:09.960Z,101569.22
2022-08-12T23:14:41.008Z,101563.19
2022-08-12T23:17:39.847Z,101568.97
2022-08-12T23:19:45.884Z,101567.78
2022-08-12T23:22:36.192Z,101565.24
2022-08-12T23:24:56.405Z,101564.76
2022-08-12T23:27:51.002Z,101561.46
2022-08-12T23:30:18.773Z,101565.94
2022-08-12T23:32:41.436Z,101567.05
2022-08-12T23:35:18.528Z,101566.61
2022-08-12T23:37:53.745Z,101564.44
2022-08-12T23:40:22.530Z,101571.45
2022-08-12T23:42:55.344Z,101567.20
2022-08-12T23:45:31.080Z,101568.64
2022-08-12T23:48:00.252Z,101571.44
2022-08-12T23:50:33.474Z,101562.69
2022-08-12T23:53:02.791Z,101572.42
2022-08-12T23:55:38.271Z,101561.56
2022-08-12T23:58:22.651Z,101564.09
